Time;durP1;ratioP1;P1;durP2;ratioP2;P2;SDS_P1;SDS_P2;PMS_P1;PMS_P2;Temp;Humidity;BMP_temperature;BMP_pressure;BME280_temperature;BME280_humidity;BME280_pressure;Samples;Min_cycle;Max_cycle;Signal;HPM_P1;HPM_P2
2022/06/09 00:01:03;;;;;;;;;2.00;2.00;;;;;19.68;52.27;100784.41;2094146;28;47429;-62
2022/06/09 00:02:05;;;;;;;;;2.00;2.00;;;;;19.67;52.35;100792.59;2092910;28;47749;-62
2022/06/09 00:03:13;;;;;;;;;2.75;1.50;;;;;19.65;52.74;100787.28;2082538;28;48352;-63
2022/06/09 00:04:16;;;;;;;;;2.50;1.00;;;;;19.64;52.19;100792.78;2090761;28;48005;-61
2022/06/09 00:05:17;;;;;;;;;2.75;2.00;;;;;19.62;52.28;100800.06;2093940;27;47734;-61
2022/06/09 00:06:18;;;;;;;;;2.50;2.00;;;;;19.61;52.72;100792.94;2092663;28;48045;-62
2022/06/09 00:07:21;;;;;;;;;1.00;1.00;;;;;19.62;52.52;100794.69;2099036;28;46556;-61
2022/06/09 00:08:22;;;;;;;;;3.75;1.75;;;;;19.62;52.29;100800.06;2095129;27;48033;-63
2022/06/09 00:09:29;;;;;;;;;6.00;3.00;;;;;19.60;52.41;100802.84;2084939;28;48305;-61
2022/06/09 00:10:35;;;;;;;;;1.75;1.75;;;;;19.60;52.36;100804.69;2083528;27;47582;-61
2022/06/09 00:11:40;;;;;;;;;3.25;3.25;;;;;19.58;52.58;100807.47;2100661;27;47681;-62
2022/06/09 00:12:41;;;;;;;;;1.50;1.50;;;;;19.58;53.05;100804.78;2096134;27;47736;-62
2022/06/09 00:13:42;;;;;;;;;1.00;1.00;;;;;19.58;52.47;100809.28;2085914;28;48060;-62
2022/06/09 00:14:42;;;;;;;;;1.67;1.00;;;;;19.57;52.83;100816.50;2083097;28;47628;-62
2022/06/09 00:15:43;;;;;;;;;20.75;16.00;;;;;19.58;52.83;100806.59;2099402;27;47452;-62
2022/06/09 00:16:44;;;;;;;;;4.00;3.00;;;;;19.56;52.42;100801.28;2098633;27;45580;-62
2022/06/09 00:17:44;;;;;;;;;4.00;3.00;;;;;19.55;52.64;100810.31;2105113;27;47376;-62
2022/06/09 00:18:44;;;;;;;;;2.67;2.67;;;;;19.54;52.59;100810.38;2096423;27;47110;-62
2022/06/09 00:19:45;;;;;;;;;4.00;2.00;;;;;19.54;52.40;100813.06;2103919;27;47627;-63
2022/06/09 00:20:45;;;;;;;;;3.33;2.00;;;;;19.53;52.33;100809.50;2099669;27;46171;-62
2022/06/09 00:21:46;;;;;;;;;1.00;0.00;;;;;19.51;52.46;100810.56;2108166;27;47732;-62
2022/06/09 00:22:46;;;;;;;;;3.00;3.00;;;;;19.50;52.65;100816.91;2098493;27;47498;-62
2022/06/09 00:23:47;;;;;;;;;2.00;2.00;;;;;19.49;52.67;100816.03;2107331;27;46288;-62
2022/06/09 00:24:48;;;;;;;;;2.00;2.00;;;;;19.49;52.82;100815.16;2097573;27;47249;-62
2022/06/09 00:25:49;;;;;;;;;3.33;3.00;;;;;19.49;52.75;100820.53;2103862;27;47261;-62
2022/06/09 00:26:50;;;;;;;;;2.75;2.25;;;;;19.48;52.63;100814.28;2094893;27;47711;-62
2022/06/09 00:27:50;;;;;;;;;2.67;1.67;;;;;19.49;52.48;100823.22;2099864;27;48071;-62
2022/06/09 00:28:51;;;;;;;;;2.00;2.00;;;;;19.49;52.59;100823.22;2096113;27;48018;-62
2022/06/09 00:29:51;;;;;;;;;3.67;2.67;;;;;19.46;52.59;100824.28;2098755;27;47415;-62
2022/06/09 00:30:52;;;;;;;;;2.00;2.00;;;;;19.46;52.44;100826.97;2098747;27;48049;-62
2022/06/09 00:31:52;;;;;;;;;3.00;3.00;;;;;19.44;52.88;100822.59;2102060;27;47682;-62
2022/06/09 00:32:52;;;;;;;;;2.00;2.00;;;;;19.43;52.58;100829.81;2101839;27;47700;-62
2022/06/09 00:33:53;;;;;;;;;2.67;1.00;;;;;19.43;52.64;100824.44;2102199;27;47693;-61
2022/06/09 00:34:53;;;;;;;;;1.00;1.00;;;;;19.41;52.78;100829.91;2096622;27;47217;-62
2022/06/09 00:35:54;;;;;;;;;3.00;2.00;;;;;19.41;52.46;100829.03;2097821;28;46207;-62
2022/06/09 00:36:54;;;;;;;;;2.67;2.67;;;;;19.39;52.80;100831.81;2102939;27;47777;-62
2022/06/09 00:37:55;;;;;;;;;2.67;1.00;;;;;19.38;52.55;100834.59;2103571;27;47990;-61
2022/06/09 00:38:57;;;;;;;;;4.00;4.00;;;;;19.37;52.37;100832.88;2097488;28;48153;-62
2022/06/09 00:39:59;;;;;;;;;2.50;2.50;;;;;19.36;53.07;100840.06;2099290;27;47599;-61
2022/06/09 00:41:02;;;;;;;;;1.75;1.75;;;;;19.35;52.95;100843.72;2100798;27;48194;-62
2022/06/09 00:42:02;;;;;;;;;3.00;2.25;;;;;19.35;52.98;100832.97;2102097;27;48366;-62
2022/06/09 00:43:04;;;;;;;;;6.67;5.67;;;;;19.34;52.65;100836.59;2091039;28;47340;-61
2022/06/09 00:44:22;;;;;;;;;5.00;5.00;;;;;19.33;53.12;100834.88;2088866;28;47533;-61
2022/06/09 00:45:32;;;;;;;;;2.00;2.00;;;;;19.32;53.09;100829.59;2100882;28;47780;-61
2022/06/09 00:46:38;;;;;;;;;4.00;1.75;;;;;19.34;52.96;100843.81;2100922;27;47679;-61
2022/06/09 00:47:39;;;;;;;;;0.00;0.00;;;;;19.33;52.89;100834.00;2107702;27;47929;-61
2022/06/09 00:49:01;;;;;;;;;4.25;4.00;;;;;19.33;52.72;100828.63;2097024;27;48143;-61
2022/06/09 00:50:14;;;;;;;;;1.50;1.50;;;;;19.31;52.92;100825.13;2090973;28;47585;-61
2022/06/09 00:51:32;;;;;;;;;1.00;1.00;;;;;19.31;52.77;100827.81;2097744;28;48068;-62
2022/06/09 00:52:39;;;;;;;;;2.75;2.75;;;;;19.31;53.12;100838.56;2098313;27;47458;-62
2022/06/09 00:53:41;;;;;;;;;2.25;1.00;;;;;19.29;52.78;100830.59;2098774;28;47738;-60
2022/06/09 00:54:49;;;;;;;;;1.00;1.00;;;;;19.28;52.48;100831.56;2098052;27;48927;-61
2022/06/09 00:55:52;;;;;;;;;2.25;1.75;;;;;19.28;52.90;100836.94;2105188;27;47790;-62
2022/06/09 00:57:08;;;;;;;;;1.75;1.75;;;;;19.27;53.12;100837.03;2101411;28;48350;-62
2022/06/09 00:58:14;;;;;;;;;3.00;2.00;;;;;19.27;53.06;100837.88;2099661;27;45711;-62
2022/06/09 00:59:19;;;;;;;;;1.75;1.00;;;;;19.26;52.76;100844.22;2102133;27;47406;-62
2022/06/09 01:00:27;;;;;;;;;0.50;0.50;;;;;19.25;52.95;100839.81;2099975;27;46696;-62
2022/06/09 01:01:28;;;;;;;;;4.00;2.00;;;;;19.24;53.40;100840.75;2103401;27;48003;-62
2022/06/09 01:02:29;;;;;;;;;3.00;3.00;;;;;19.26;53.09;100840.66;2100089;27;47861;-62
2022/06/09 01:03:40;;;;;;;;;2.50;1.75;;;;;19.24;52.95;100839.91;2097152;27;47749;-62
2022/06/09 01:04:41;;;;;;;;;2.75;2.25;;;;;19.23;53.08;100840.84;2096596;28;47913;-62
2022/06/09 01:05:42;;;;;;;;;2.75;1.75;;;;;19.21;52.81;100840.06;2107311;27;47758;-61
2022/06/09 01:06:50;;;;;;;;;2.75;2.75;;;;;19.19;52.99;100842.84;2097641;27;47181;-61
2022/06/09 01:07:54;;;;;;;;;1.75;1.00;;;;;19.19;53.12;100839.28;2098964;27;47979;-62
2022/06/09 01:09:05;;;;;;;;;2.75;1.25;;;;;19.18;53.13;100842.91;2100006;27;47920;-62
2022/06/09 01:10:06;;;;;;;;;1.00;1.00;;;;;19.16;53.29;100840.31;2081138;28;47693;-62
2022/06/09 01:11:06;;;;;;;;;1.50;1.50;;;;;19.16;52.95;100837.63;2075267;28;47612;-62
2022/06/09 01:12:32;;;;;;;;;1.33;1.33;;;;;19.14;53.12;100838.66;2088622;28;47633;-61
2022/06/09 01:13:33;;;;;;;;;0.75;0.75;;;;;19.11;52.84;100837.88;2101447;27;47333;-61
2022/06/09 01:14:33;;;;;;;;;3.00;2.67;;;;;19.10;53.38;100835.28;2098696;27;47691;-61
2022/06/09 01:16:00;;;;;;;;;2.67;1.67;;;;;19.09;53.39;100837.09;2106820;27;47580;-61
2022/06/09 01:17:15;;;;;;;;;2.50;2.00;;;;;19.09;53.52;100836.22;2091183;28;47907;-60
2022/06/09 01:19:13;;;;;;;;;2.75;2.25;;;;;19.07;53.37;100847.09;2093511;28;47366;-61
2022/06/09 01:20:19;;;;;;;;;0.25;0.25;;;;;19.05;53.61;100838.19;2059905;28;47741;-61
2022/06/09 01:21:34;;;;;;;;;1.00;1.00;;;;;19.06;53.40;100841.78;2061686;28;47985;-61
2022/06/09 01:22:38;;;;;;;;;6.00;2.00;;;;;19.05;53.59;100842.72;2058795;28;47907;-61
2022/06/09 01:24:07;;;;;;;;;2.50;2.50;;;;;19.03;53.49;100853.56;2061537;28;47560;-61
2022/06/09 01:25:32;;;;;;;;;4.00;2.00;;;;;19.01;53.61;100847.41;2060357;28;47636;-61
2022/06/09 01:26:45;;;;;;;;;3.25;3.25;;;;;18.99;53.40;100849.31;2058187;28;47823;-61
2022/06/09 01:28:25;;;;;;;;;4.75;3.00;;;;;18.98;53.35;100844.88;2061103;28;47762;-61
2022/06/09 01:29:47;;;;;;;;;1.25;1.25;;;;;18.96;53.49;100849.47;2061655;28;48248;-61
2022/06/09 01:30:51;;;;;;;;;1.25;1.25;;;;;18.93;53.55;100855.03;2059266;28;47637;-61
2022/06/09 01:32:13;;;;;;;;;2.00;1.50;;;;;18.93;53.70;100849.66;2059662;28;47501;-61
2022/06/09 01:33:36;;;;;;;;;3.50;2.75;;;;;18.93;53.42;100859.50;2059658;28;47986;-61
2022/06/09 01:34:43;;;;;;;;;1.00;1.00;;;;;18.94;53.73;100850.53;2059358;28;47542;-61
2022/06/09 01:35:52;;;;;;;;;2.25;2.25;;;;;18.92;53.83;100858.66;2061311;28;47777;-62
2022/06/09 01:37:15;;;;;;;;;3.25;2.00;;;;;18.91;53.78;100861.41;2051463;28;47449;-61
2022/06/09 01:38:16;;;;;;;;;2.00;1.75;;;;;18.91;53.98;100869.50;2050886;28;48301;-62
2022/06/09 01:39:17;;;;;;;;;2.00;2.00;;;;;18.89;53.97;100864.19;2061885;28;48151;-62
2022/06/09 01:40:19;;;;;;;;;4.00;2.67;;;;;18.89;53.60;100863.34;2057943;28;47839;-60
2022/06/09 01:41:22;;;;;;;;;2.00;1.00;;;;;18.87;53.95;100866.09;2061361;28;46969;-61
2022/06/09 01:42:26;;;;;;;;;2.50;2.00;;;;;18.87;53.86;100868.78;2059161;28;47719;-61
2022/06/09 01:43:26;;;;;;;;;2.50;1.25;;;;;18.87;53.89;100867.94;2060617;28;47717;-61
2022/06/09 01:44:26;;;;;;;;;2.67;2.67;;;;;18.86;53.88;100866.19;2058368;28;47949;-59
2022/06/09 01:45:47;;;;;;;;;1.00;0.33;;;;;18.86;53.95;100861.69;2061449;28;47197;-61
2022/06/09 01:46:49;;;;;;;;;0.25;0.25;;;;;18.84;54.22;100866.28;2060700;28;48400;-61
2022/06/09 01:48:11;;;;;;;;;2.00;1.50;;;;;18.84;53.84;100870.78;2069198;28;47727;-61
2022/06/09 01:49:17;;;;;;;;;3.75;1.25;;;;;18.84;53.70;100865.41;2062136;28;47559;-61
2022/06/09 01:50:35;;;;;;;;;3.50;1.00;;;;;18.84;53.91;100862.72;2058679;28;47632;-61
2022/06/09 01:51:41;;;;;;;;;3.75;2.00;;;;;18.85;54.16;100867.16;2063343;28;48074;-61
2022/06/09 01:52:43;;;;;;;;;3.00;1.25;;;;;18.86;53.86;100860.81;2060099;28;47316;-61
2022/06/09 01:53:51;;;;;;;;;2.75;2.00;;;;;18.84;54.07;100866.28;2062762;28;47922;-61
2022/06/09 01:54:53;;;;;;;;;1.75;1.75;;;;;18.82;54.17;100868.19;2073861;28;47043;-60
2022/06/09 01:56:14;;;;;;;;;2.75;2.75;;;;;18.81;53.91;100875.38;2106467;27;47619;-61
2022/06/09 01:57:28;;;;;;;;;1.75;1.75;;;;;18.78;54.06;100874.66;2098329;28;47538;-61
2022/06/09 01:58:35;;;;;;;;;3.50;3.00;;;;;18.78;54.02;100872.84;2086537;28;47421;-61
2022/06/09 01:59:43;;;;;;;;;2.00;1.25;;;;;18.78;54.15;100872.84;2094723;27;47416;-61
2022/06/09 02:00:44;;;;;;;;;4.00;2.25;;;;;18.76;54.28;100864.00;2101623;27;47583;-62
2022/06/09 02:01:55;;;;;;;;;2.25;2.25;;;;;18.76;54.28;100876.56;2106108;27;47900;-61
2022/06/09 02:03:09;;;;;;;;;3.50;2.25;;;;;18.74;54.35;100879.34;2100827;27;48007;-62
2022/06/09 02:04:33;;;;;;;;;5.75;2.00;;;;;18.74;54.29;100878.47;2101014;27;48252;-62
2022/06/09 02:05:39;;;;;;;;;2.00;1.00;;;;;18.73;54.43;100882.97;2089972;28;47605;-61
2022/06/09 02:06:42;;;;;;;;;2.75;2.75;;;;;18.75;54.16;100885.59;2084572;28;48221;-61
2022/06/09 02:07:44;;;;;;;;;3.50;3.00;;;;;18.75;54.35;100891.81;2104543;27;48219;-62
2022/06/09 02:08:46;;;;;;;;;3.00;1.75;;;;;18.77;54.57;100886.38;2101202;27;48151;-62
2022/06/09 02:09:47;;;;;;;;;4.00;3.50;;;;;18.76;54.47;100890.00;2096780;28;47891;-62
2022/06/09 02:10:54;;;;;;;;;2.00;2.00;;;;;18.75;54.27;100885.59;2090834;28;47354;-61
2022/06/09 02:11:57;;;;;;;;;3.25;3.25;;;;;18.75;54.32;100890.97;2099425;27;47759;-60
2022/06/09 02:13:09;;;;;;;;;1.00;1.00;;;;;18.75;54.42;100886.44;2100983;27;47778;-62
2022/06/09 02:14:09;;;;;;;;;3.75;1.50;;;;;18.74;54.25;100890.09;2091753;28;47400;-59
2022/06/09 02:15:16;;;;;;;;;2.67;2.33;;;;;18.74;53.89;100887.41;2091158;28;47509;-60
2022/06/09 02:16:21;;;;;;;;;1.00;1.00;;;;;18.75;54.42;100883.75;2101958;27;46614;-61
2022/06/09 02:17:22;;;;;;;;;4.00;3.50;;;;;18.73;54.40;100893.72;2103075;27;47325;-61
2022/06/09 02:18:26;;;;;;;;;2.00;1.67;;;;;18.73;54.28;100895.56;2103022;27;47738;-60
2022/06/09 02:19:27;;;;;;;;;2.00;2.00;;;;;18.72;54.23;100899.19;2107358;27;47863;-61
2022/06/09 02:20:27;;;;;;;;;2.25;2.25;;;;;18.72;54.51;100896.50;2098446;27;47630;-61
2022/06/09 02:21:32;;;;;;;;;2.67;2.67;;;;;18.71;54.48;100894.78;2104132;27;47926;-61
2022/06/09 02:22:32;;;;;;;;;1.50;1.50;;;;;18.68;54.34;100894.94;2098113;27;47732;-60
2022/06/09 02:23:33;;;;;;;;;2.00;1.00;;;;;18.70;54.45;100890.34;2108882;27;48333;-60
2022/06/09 02:24:34;;;;;;;;;5.00;3.33;;;;;18.68;54.47;100903.88;2098707;27;47715;-61
2022/06/09 02:25:34;;;;;;;;;2.00;2.00;;;;;18.69;54.24;100897.53;2105266;27;47993;-62
2022/06/09 02:26:35;;;;;;;;;0.67;0.67;;;;;18.68;54.55;100905.69;2100037;27;47820;-61
2022/06/09 02:27:35;;;;;;;;;3.33;2.00;;;;;18.67;54.65;100895.84;2097194;28;47700;-61
2022/06/09 02:28:36;;;;;;;;;0.67;0.33;;;;;18.68;54.70;100892.25;2099069;27;47781;-61
2022/06/09 02:29:37;;;;;;;;;2.00;2.00;;;;;18.67;54.52;100895.84;2098219;27;47650;-61
2022/06/09 02:30:38;;;;;;;;;2.50;2.25;;;;;18.66;54.05;100895.00;2099427;27;48027;-61
2022/06/09 02:31:39;;;;;;;;;1.00;1.00;;;;;18.66;54.54;100891.44;2102380;27;47980;-60
2022/06/09 02:32:40;;;;;;;;;3.33;3.00;;;;;18.64;54.61;100887.97;2096434;28;47779;-60
2022/06/09 02:33:40;;;;;;;;;3.67;2.00;;;;;18.63;54.36;100895.13;2105527;27;47145;-59
2022/06/09 02:34:41;;;;;;;;;2.33;2.33;;;;;18.63;54.51;100903.19;2101263;27;47929;-59
2022/06/09 02:35:41;;;;;;;;;1.67;1.00;;;;;18.62;54.66;100895.22;2098018;28;48091;-60
2022/06/09 02:36:42;;;;;;;;;0.67;0.67;;;;;18.60;54.71;100895.28;2099772;27;47566;-61
2022/06/09 02:37:42;;;;;;;;;3.00;3.00;;;;;18.61;54.77;100898.84;2106657;27;48053;-59
2022/06/09 02:38:43;;;;;;;;;2.00;2.00;;;;;18.60;54.44;100894.44;2097474;27;47960;-59
2022/06/09 02:39:43;;;;;;;;;2.00;2.00;;;;;18.59;54.73;100893.56;2109597;27;47666;-60
2022/06/09 02:40:44;;;;;;;;;4.00;3.00;;;;;18.57;54.43;100894.59;2097721;28;47763;-59
2022/06/09 02:41:45;;;;;;;;;2.33;2.33;;;;;18.56;54.74;100899.09;2103386;27;47327;-60
2022/06/09 02:42:45;;;;;;;;;2.00;1.33;;;;;18.56;54.74;100891.03;2088355;28;47626;-60
2022/06/09 02:43:45;;;;;;;;;5.33;3.67;;;;;18.55;54.61;100891.97;2092779;28;48070;-62
2022/06/09 02:44:46;;;;;;;;;2.00;2.00;;;;;18.56;54.71;100903.59;2089564;28;47547;-61
2022/06/09 02:45:47;;;;;;;;;3.00;3.00;;;;;18.54;54.73;100893.78;2090998;28;48167;-60
2022/06/09 02:46:47;;;;;;;;;3.00;3.00;;;;;18.54;54.77;100899.16;2099219;27;47960;-60
2022/06/09 02:47:49;;;;;;;;;1.33;1.33;;;;;18.54;54.62;100893.78;2103252;27;47773;-60
2022/06/09 02:48:49;;;;;;;;;1.25;1.25;;;;;18.55;54.80;100891.97;2081663;28;47731;-62
2022/06/09 02:49:50;;;;;;;;;1.67;1.67;;;;;18.55;54.74;100889.31;2083923;28;47536;-61
2022/06/09 02:50:53;;;;;;;;;3.67;3.00;;;;;18.54;54.72;100896.47;2098221;27;47932;-61
2022/06/09 02:51:54;;;;;;;;;2.75;1.75;;;;;18.52;54.83;100895.69;2101025;27;47857;-61
2022/06/09 02:52:54;;;;;;;;;4.33;2.00;;;;;18.51;54.62;100890.38;2105761;27;47810;-61
2022/06/09 02:53:57;;;;;;;;;2.00;2.00;;;;;18.50;54.86;100894.03;2102339;27;47621;-61
2022/06/09 02:54:58;;;;;;;;;4.00;2.00;;;;;18.48;54.70;100891.41;2100114;27;47625;-60
2022/06/09 02:55:58;;;;;;;;;4.67;3.00;;;;;18.48;54.71;100888.72;2106186;27;47722;-61
2022/06/09 02:56:58;;;;;;;;;4.00;4.00;;;;;18.47;54.72;100888.81;2096852;27;47658;-61
2022/06/09 02:57:59;;;;;;;;;3.00;2.00;;;;;18.47;54.84;100902.25;2102057;27;47611;-60
2022/06/09 02:58:59;;;;;;;;;0.00;0.00;;;;;18.47;54.68;100889.69;2100266;27;48098;-60
2022/06/09 03:00:00;;;;;;;;;2.67;1.33;;;;;18.48;54.82;100895.94;2100104;27;47875;-62
2022/06/09 03:01:00;;;;;;;;;2.67;2.00;;;;;18.47;54.77;100903.13;2101918;27;48111;-60
2022/06/09 03:02:01;;;;;;;;;1.33;1.33;;;;;18.45;54.74;100899.66;2103711;27;47530;-61
2022/06/09 03:03:05;;;;;;;;;3.00;1.33;;;;;18.45;55.14;100901.47;2084322;28;48339;-61
2022/06/09 03:04:07;;;;;;;;;5.00;3.00;;;;;18.45;54.88;100906.84;2084973;28;46923;-61
2022/06/09 03:05:08;;;;;;;;;1.75;1.75;;;;;18.44;54.90;100900.59;2103160;27;48211;-62
2022/06/09 03:06:08;;;;;;;;;4.00;2.00;;;;;18.45;54.90;100906.84;2100961;27;47602;-63
2022/06/09 03:07:08;;;;;;;;;5.67;2.00;;;;;18.44;54.90;100903.28;2106886;27;47264;-61
2022/06/09 03:08:09;;;;;;;;;2.00;1.00;;;;;18.44;55.01;100905.97;2098543;28;47996;-61
2022/06/09 03:09:09;;;;;;;;;1.67;1.67;;;;;18.45;54.93;100901.47;2104763;27;47731;-60
2022/06/09 03:10:10;;;;;;;;;1.33;1.00;;;;;18.45;54.79;100906.84;2102141;27;47767;-60
2022/06/09 03:11:10;;;;;;;;;2.00;2.00;;;;;18.44;54.86;100905.09;2099956;27;47998;-62
2022/06/09 03:12:11;;;;;;;;;2.33;1.33;;;;;18.45;54.84;100909.53;2097980;27;47791;-62
2022/06/09 03:13:11;;;;;;;;;2.67;1.00;;;;;18.44;54.98;100907.78;2102272;27;47910;-62
2022/06/09 03:14:12;;;;;;;;;2.00;2.00;;;;;18.43;54.96;100906.91;2099725;27;47532;-62
2022/06/09 03:15:15;;;;;;;;;2.33;2.00;;;;;18.43;55.29;100906.06;2106567;27;47746;-61
2022/06/09 03:16:16;;;;;;;;;3.50;3.25;;;;;18.42;54.91;100905.19;2091650;28;47200;-60
2022/06/09 03:17:17;;;;;;;;;3.00;3.00;;;;;18.42;54.94;100904.28;2101194;27;47770;-60
2022/06/09 03:18:18;;;;;;;;;2.67;2.67;;;;;18.41;54.78;100903.41;2088647;28;47569;-59
2022/06/09 03:19:19;;;;;;;;;2.00;2.00;;;;;18.41;54.89;100906.09;2085653;28;47539;-61
2022/06/09 03:20:26;;;;;;;;;2.00;2.00;;;;;18.41;55.12;100905.25;2090250;28;47871;-62
2022/06/09 03:21:26;;;;;;;;;4.00;3.00;;;;;18.38;55.05;100905.41;2101094;27;47733;-62
2022/06/09 03:22:27;;;;;;;;;2.00;2.00;;;;;18.38;55.27;100897.34;2097162;27;47217;-62
2022/06/09 03:23:27;;;;;;;;;2.67;2.67;;;;;18.38;55.09;100910.78;2103628;27;47848;-62
2022/06/09 03:24:27;;;;;;;;;2.33;2.00;;;;;18.36;55.15;100910.00;2101138;27;48205;-62
2022/06/09 03:25:28;;;;;;;;;4.00;1.33;;;;;18.34;55.15;100910.06;2103257;27;47675;-61
2022/06/09 03:26:28;;;;;;;;;4.00;2.00;;;;;18.35;55.12;100906.44;2097899;27;48055;-62
2022/06/09 03:27:29;;;;;;;;;1.67;1.67;;;;;18.35;55.38;100909.13;2103031;27;47855;-61
2022/06/09 03:28:29;;;;;;;;;3.67;1.67;;;;;18.35;55.28;100908.25;2100314;27;48257;-60
2022/06/09 03:29:30;;;;;;;;;3.67;3.00;;;;;18.35;55.04;100909.13;2102315;28;46768;-62
2022/06/09 03:30:32;;;;;;;;;5.00;3.00;;;;;18.35;55.16;100917.19;2083854;28;47515;-62
2022/06/09 03:31:32;;;;;;;;;2.00;2.00;;;;;18.35;55.32;100919.00;2089145;28;47576;-61
2022/06/09 03:32:33;;;;;;;;;1.00;1.00;;;;;18.33;55.27;100910.16;2097452;27;47872;-61
2022/06/09 03:33:33;;;;;;;;;2.67;1.67;;;;;18.32;55.32;100911.97;2105176;27;47229;-61
2022/06/09 03:34:34;;;;;;;;;2.67;2.67;;;;;18.32;55.35;100916.47;2097172;27;47842;-62
2022/06/09 03:35:35;;;;;;;;;5.50;3.50;;;;;18.33;55.40;100915.53;2096668;28;47277;-63
2022/06/09 03:36:35;;;;;;;;;1.00;1.00;;;;;18.32;55.38;100920.03;2083422;28;47746;-61
2022/06/09 03:37:36;;;;;;;;;2.00;1.67;;;;;18.32;55.22;100920.03;2086865;28;47836;-61
2022/06/09 03:38:40;;;;;;;;;3.00;2.00;;;;;18.31;55.37;100925.47;2098437;27;48205;-62
2022/06/09 03:39:40;;;;;;;;;3.00;3.00;;;;;18.30;55.47;100924.63;2104331;27;48001;-61
2022/06/09 03:40:41;;;;;;;;;2.67;2.00;;;;;18.30;55.38;100921.06;2090627;28;47222;-62
2022/06/09 03:41:41;;;;;;;;;3.00;1.33;;;;;18.30;55.53;100923.75;2098827;28;47193;-62
2022/06/09 03:42:42;;;;;;;;;1.33;1.33;;;;;18.27;55.53;100932.81;2096769;27;48101;-61
2022/06/09 03:43:42;;;;;;;;;3.00;2.00;;;;;18.27;55.55;100924.75;2094599;28;48019;-62
2022/06/09 03:44:43;;;;;;;;;3.00;2.00;;;;;18.27;55.50;100924.75;2089010;28;47907;-62
2022/06/09 03:45:43;;;;;;;;;2.00;2.00;;;;;18.27;55.55;100930.13;2098621;27;47771;-62
2022/06/09 03:46:43;;;;;;;;;5.67;4.00;;;;;18.26;55.63;100931.06;2100178;27;47390;-61
2022/06/09 03:47:44;;;;;;;;;3.00;3.00;;;;;18.26;55.32;100933.75;2106426;27;47857;-62
2022/06/09 03:48:44;;;;;;;;;2.00;2.00;;;;;18.26;55.46;100930.19;2096039;27;47840;-61
2022/06/09 03:49:45;;;;;;;;;2.67;2.67;;;;;18.26;55.82;100935.56;2105510;27;47405;-62
2022/06/09 03:50:45;;;;;;;;;2.67;2.33;;;;;18.26;55.56;100938.25;2095924;27;47602;-60
2022/06/09 03:51:45;;;;;;;;;4.00;2.33;;;;;18.25;55.83;100926.66;2100521;27;47836;-62
2022/06/09 03:52:46;;;;;;;;;2.00;2.00;;;;;18.26;55.69;100935.56;2100019;27;47768;-60
2022/06/09 03:53:47;;;;;;;;;2.33;2.00;;;;;18.24;55.55;100927.59;2091866;28;48006;-61
2022/06/09 03:54:47;;;;;;;;;3.00;3.00;;;;;18.23;55.72;100941.97;2089943;28;47621;-60
2022/06/09 03:55:48;;;;;;;;;3.33;2.33;;;;;18.22;55.70;100938.41;2103429;27;47607;-61
2022/06/09 03:56:48;;;;;;;;;3.00;1.67;;;;;18.22;55.81;100935.72;2098930;27;47406;-61
2022/06/09 03:57:49;;;;;;;;;2.67;1.67;;;;;18.23;55.78;100942.84;2098307;28;47351;-61
2022/06/09 03:58:49;;;;;;;;;5.00;4.00;;;;;18.23;55.57;100947.34;2092104;28;47734;-60
2022/06/09 03:59:50;;;;;;;;;3.00;2.00;;;;;18.22;55.82;100949.16;2103770;27;47508;-61
2022/06/09 04:00:51;;;;;;;;;5.67;2.33;;;;;18.21;55.67;100955.47;2099511;27;48375;-60
2022/06/09 04:01:51;;;;;;;;;4.67;4.67;;;;;18.22;55.63;100953.66;2094172;28;46068;-60
2022/06/09 04:02:52;;;;;;;;;5.00;4.00;;;;;18.22;55.66;100959.91;2088611;28;47894;-61
2022/06/09 04:03:52;;;;;;;;;2.67;2.33;;;;;18.23;55.86;100955.41;2102366;27;47775;-62
2022/06/09 04:04:53;;;;;;;;;3.67;1.67;;;;;18.23;55.54;100960.78;2099321;27;47674;-61
2022/06/09 04:05:53;;;;;;;;;5.00;2.00;;;;;18.22;55.79;100957.22;2095282;28;47389;-61
2022/06/09 04:06:54;;;;;;;;;5.00;3.00;;;;;18.22;55.73;100967.97;2089431;28;47717;-61
2022/06/09 04:07:55;;;;;;;;;3.33;2.00;;;;;18.22;55.72;100959.03;2081811;28;47583;-61
2022/06/09 04:08:56;;;;;;;;;3.00;3.00;;;;;18.22;55.83;100959.03;2085919;28;47949;-61
2022/06/09 04:09:56;;;;;;;;;1.00;1.00;;;;;18.21;55.79;100960.00;2087312;28;47936;-63
2022/06/09 04:10:57;;;;;;;;;1.00;1.00;;;;;18.21;55.91;100965.38;2090367;28;47503;-62
2022/06/09 04:11:57;;;;;;;;;4.00;3.00;;;;;18.22;55.89;100959.03;2101362;28;47671;-60
2022/06/09 04:12:58;;;;;;;;;4.67;3.00;;;;;18.19;55.93;100952.00;2101780;28;47937;-61
2022/06/09 04:13:59;;;;;;;;;1.00;1.00;;;;;18.19;55.73;100961.88;2095257;28;48090;-60
2022/06/09 04:14:59;;;;;;;;;4.00;2.00;;;;;18.18;55.80;100960.16;2096616;28;46407;-61
2022/06/09 04:16:00;;;;;;;;;5.00;3.00;;;;;18.16;55.87;100949.44;2092581;28;47899;-61
2022/06/09 04:17:00;;;;;;;;;3.67;3.67;;;;;18.15;55.79;100960.28;2087858;28;47685;-61
2022/06/09 04:18:04;;;;;;;;;5.00;3.00;;;;;18.15;56.04;100973.69;2096075;28;47630;-61
2022/06/09 04:19:09;;;;;;;;;2.00;2.00;;;;;18.14;56.12;100966.59;2092421;28;47862;-61
2022/06/09 04:20:10;;;;;;;;;3.25;3.25;;;;;18.14;55.84;100972.84;2090661;28;48195;-61
2022/06/09 04:21:11;;;;;;;;;3.50;2.75;;;;;18.11;55.97;100969.44;2092905;28;48100;-61
2022/06/09 04:22:12;;;;;;;;;3.00;1.00;;;;;18.11;56.03;100972.13;2095257;28;48034;-61
2022/06/09 04:23:12;;;;;;;;;3.33;2.00;;;;;18.10;55.83;100973.94;2093883;28;46585;-61
2022/06/09 04:24:12;;;;;;;;;2.33;2.33;;;;;18.10;56.07;100976.63;2090809;28;47988;-61
2022/06/09 04:25:13;;;;;;;;;4.67;3.00;;;;;18.10;56.01;100978.44;2095268;28;47261;-62
2022/06/09 04:26:17;;;;;;;;;3.00;2.00;;;;;18.10;56.08;100976.63;2089950;28;47468;-61
2022/06/09 04:27:18;;;;;;;;;4.50;3.25;;;;;18.10;56.02;100981.13;2089277;28;47636;-61
2022/06/09 04:28:19;;;;;;;;;3.00;3.00;;;;;18.11;56.01;100980.19;2088356;28;48001;-61
2022/06/09 04:29:19;;;;;;;;;2.75;2.75;;;;;18.11;56.00;100989.09;2088817;28;47803;-61
2022/06/09 04:30:21;;;;;;;;;6.00;4.67;;;;;18.10;56.05;100992.75;2088856;28;47386;-61
2022/06/09 04:31:22;;;;;;;;;3.25;2.00;;;;;18.10;56.20;100987.38;2092421;28;45900;-62
2022/06/09 04:32:24;;;;;;;;;4.50;2.00;;;;;18.11;56.08;100985.56;2089915;28;47673;-60
2022/06/09 04:33:24;;;;;;;;;3.00;2.25;;;;;18.09;55.96;100982.94;2093606;28;48037;-61
2022/06/09 04:34:25;;;;;;;;;4.00;4.00;;;;;18.09;56.18;100985.63;2088172;28;47655;-61
2022/06/09 04:35:26;;;;;;;;;4.00;3.00;;;;;18.08;56.37;100994.63;2087671;28;47362;-61
2022/06/09 04:36:26;;;;;;;;;2.00;2.00;;;;;18.08;56.26;100989.25;2089237;28;47576;-61
2022/06/09 04:37:59;;;;;;;;;4.00;3.67;;;;;18.09;56.30;100995.50;2087563;28;47314;-61
2022/06/09 04:38:47;;;;;;;;;5.00;3.75;;;;;18.09;56.34;100995.50;2089554;28;47376;-61
2022/06/09 04:39:47;;;;;;;;;2.00;2.00;;;;;18.09;56.30;100998.19;2094424;28;47677;-61
2022/06/09 04:40:48;;;;;;;;;2.33;2.00;;;;;18.10;56.24;101011.53;2089029;28;47678;-60
2022/06/09 04:41:48;;;;;;;;;3.00;3.00;;;;;18.10;56.36;101003.47;2095507;28;47949;-64
2022/06/09 04:42:48;;;;;;;;;4.33;4.33;;;;;18.11;56.21;101007.91;2086236;28;47052;-62
2022/06/09 04:43:49;;;;;;;;;2.33;2.33;;;;;18.12;56.34;101003.41;2087816;28;47518;-61
2022/06/09 04:44:49;;;;;;;;;1.67;1.67;;;;;18.12;56.13;101015.03;2091801;28;47809;-61
2022/06/09 04:45:50;;;;;;;;;2.67;2.33;;;;;18.14;56.27;101006.88;2095738;28;47947;-63
2022/06/09 04:46:51;;;;;;;;;4.00;2.00;;;;;18.12;56.54;101006.97;2086801;28;47345;-63
2022/06/09 04:47:51;;;;;;;;;8.00;3.00;;;;;18.12;56.36;101008.78;2090620;28;47603;-60
2022/06/09 04:48:52;;;;;;;;;2.00;2.00;;;;;18.13;56.19;101013.22;2093262;28;45553;-62
2022/06/09 04:49:52;;;;;;;;;3.00;2.00;;;;;18.13;56.37;101015.88;2091331;28;47158;-62
2022/06/09 04:50:52;;;;;;;;;4.00;3.00;;;;;18.10;55.97;101014.22;2091536;28;47408;-61
2022/06/09 04:51:53;;;;;;;;;4.00;4.00;;;;;18.10;56.06;101013.34;2094448;28;48129;-61
2022/06/09 04:52:53;;;;;;;;;5.00;2.00;;;;;18.09;56.31;101017.00;2092189;28;47507;-62
2022/06/09 04:53:54;;;;;;;;;4.00;3.00;;;;;18.09;56.36;101017.00;2091098;28;48073;-60
2022/06/09 04:54:54;;;;;;;;;2.00;2.00;;;;;18.08;56.21;101021.50;2091353;28;48040;-60
2022/06/09 04:55:55;;;;;;;;;3.00;3.00;;;;;18.09;56.33;101025.06;2090089;28;47585;-60